Time;durP1;ratioP1;P1;durP2;ratioP2;P2;SDS_P1;SDS_P2;PMS_P1;PMS_P2;Temp;Humidity;BMP_temperature;BMP_pressure;BME280_temperature;BME280_humidity;BME280_pressure;Samples;Min_cycle;Max_cycle;Signal;HPM_P1;HPM_P2
2021/09/29 00:01:03;;;;;;;8.73;7.00;;;;;;;12.61;75.40;100599.38;4963658;28;20509;-76
2021/09/29 00:03:30;;;;;;;8.47;6.83;;;;;;;12.63;74.88;100586.66;4964106;29;20430;-75
2021/09/29 00:05:56;;;;;;;8.73;7.03;;;;;;;12.62;74.92;100590.34;4964197;28;20504;-76
2021/09/29 00:08:24;;;;;;;11.00;9.90;;;;;;;12.70;74.96;100583.41;4963853;29;20513;-75
2021/09/29 00:10:51;;;;;;;12.20;9.13;;;;;;;12.76;75.27;100585.50;4963623;28;20493;-75
2021/09/29 00:13:19;;;;;;;11.63;7.90;;;;;;;12.75;75.16;100581.97;4964393;29;20509;-76
2021/09/29 00:15:46;;;;;;;12.10;7.80;;;;;;;12.81;74.90;100581.38;4962613;28;20477;-75
2021/09/29 00:18:13;;;;;;;8.80;7.40;;;;;;;12.84;74.51;100584.75;4962462;29;20493;-76
2021/09/29 00:20:39;;;;;;;9.47;7.93;;;;;;;12.91;74.00;100569.75;4961889;28;20473;-75
2021/09/29 00:23:06;;;;;;;9.50;6.80;;;;;;;12.98;73.82;100574.41;4962555;29;20457;-75
2021/09/29 00:25:34;;;;;;;8.50;6.53;;;;;;;12.81;74.23;100573.34;4962678;29;20481;-76
2021/09/29 00:28:02;;;;;;;11.37;7.40;;;;;;;12.67;75.00;100562.22;4962368;29;20497;-76
2021/09/29 00:30:31;;;;;;;7.17;6.47;;;;;;;12.64;75.19;100555.31;4963895;28;20545;-76
2021/09/29 00:33:01;;;;;;;11.90;7.57;;;;;;;12.72;74.78;100560.78;4964268;29;20459;-76
2021/09/29 00:35:28;;;;;;;7.83;6.57;;;;;;;12.70;74.29;100546.69;4963109;28;20537;-76
2021/09/29 00:37:55;;;;;;;7.73;6.93;;;;;;;12.83;74.40;100546.34;4964750;29;20477;-76
2021/09/29 00:40:21;;;;;;;10.97;7.50;;;;;;;12.85;74.08;100543.53;4963638;28;20456;-76
2021/09/29 00:42:49;;;;;;;8.10;6.83;;;;;;;12.83;74.15;100538.31;4963964;29;20461;-76
2021/09/29 00:45:16;;;;;;;7.83;7.03;;;;;;;12.91;73.97;100537.56;4964342;28;20513;-76
2021/09/29 00:47:43;;;;;;;11.80;7.47;;;;;;;12.86;74.34;100539.84;4964251;29;20481;-76
2021/09/29 00:50:10;;;;;;;12.60;7.67;;;;;;;12.94;74.39;100534.59;4962817;28;20525;-76
2021/09/29 00:52:40;;;;;;;9.80;7.73;;;;;;;12.95;74.30;100534.44;4965476;29;20461;-76
2021/09/29 00:55:08;;;;;;;10.90;8.17;;;;;;;12.93;74.06;100535.56;4963721;28;20484;-76
2021/09/29 00:57:35;;;;;;;8.90;8.10;;;;;;;12.87;73.63;100531.66;4964287;29;20461;-76
2021/09/29 01:00:04;;;;;;;9.37;8.40;;;;;;;12.83;74.01;100522.22;4964801;29;20461;-76
2021/09/29 01:02:31;;;;;;;10.10;8.50;;;;;;;12.82;74.10;100524.03;4963736;29;20847;-76
2021/09/29 01:04:58;;;;;;;11.03;9.30;;;;;;;12.82;74.13;100515.97;4963078;29;20468;-76
2021/09/29 01:07:27;;;;;;;9.87;8.90;;;;;;;13.03;73.59;100508.69;4963285;28;20477;-76
2021/09/29 01:10:02;;;;;;;9.43;8.40;;;;;;;12.93;73.82;100517.63;4964024;29;20497;-76
2021/09/29 01:12:34;;;;;;;10.40;9.30;;;;;;;12.90;74.22;100506.38;4963484;28;20477;-76
2021/09/29 01:15:07;;;;;;;10.80;9.63;;;;;;;12.81;74.78;100508.06;4945137;29;20553;-76
2021/09/29 01:17:35;;;;;;;11.77;10.53;;;;;;;12.77;75.36;100504.84;4956230;29;20505;-76
2021/09/29 01:20:08;;;;;;;12.37;11.00;;;;;;;12.79;75.28;100508.25;4963698;29;20897;-76
2021/09/29 01:22:50;;;;;;;13.73;11.03;;;;;;;12.79;75.19;100499.34;4964094;29;20462;-76
2021/09/29 01:25:22;;;;;;;14.40;10.37;;;;;;;12.74;75.45;100496.25;4963652;28;20521;-76
2021/09/29 01:27:50;;;;;;;12.00;10.77;;;;;;;12.80;75.35;100496.50;4963597;28;20481;-76
2021/09/29 01:30:17;;;;;;;12.40;11.00;;;;;;;12.80;75.29;100493.81;4963473;28;20497;-76
2021/09/29 01:32:43;;;;;;;12.43;10.90;;;;;;;12.73;75.23;100490.06;4954985;29;20477;-76
2021/09/29 01:35:10;;;;;;;13.43;11.27;;;;;;;12.69;75.20;100487.81;4962629;28;20493;-76
2021/09/29 01:37:37;;;;;;;12.10;10.60;;;;;;;12.75;75.21;100479.16;4963524;29;20492;-76
2021/09/29 01:40:06;;;;;;;15.00;10.80;;;;;;;12.78;75.36;100485.09;4964011;28;20468;-76
2021/09/29 01:42:32;;;;;;;10.87;9.70;;;;;;;12.75;75.11;100479.16;4963136;29;20493;-76
2021/09/29 01:45:00;;;;;;;11.50;10.30;;;;;;;12.71;75.41;100469.75;4962585;29;20532;-76
2021/09/29 01:47:27;;;;;;;16.63;10.90;;;;;;;12.77;75.21;100471.81;4963247;28;21084;-76
2021/09/29 01:50:00;;;;;;;13.03;9.60;;;;;;;12.87;74.96;100466.41;4962476;29;20516;-76
2021/09/29 01:52:28;;;;;;;12.60;11.30;;;;;;;12.80;75.46;100460.78;4948663;29;20853;-76
2021/09/29 01:54:56;;;;;;;12.77;11.27;;;;;;;12.53;76.48;100457.09;4963447;29;20458;-76
2021/09/29 01:57:23;;;;;;;12.50;11.20;;;;;;;12.53;76.54;100445.53;4963547;28;20468;-76
2021/09/29 01:59:50;;;;;;;13.13;10.40;;;;;;;12.52;76.46;100446.53;4963353;29;20915;-76
2021/09/29 02:02:18;;;;;;;13.03;11.63;;;;;;;12.60;76.58;100435.91;4963202;28;20485;-76
2021/09/29 02:04:46;;;;;;;14.90;11.13;;;;;;;12.68;76.23;100443.22;4963690;29;20520;-76
2021/09/29 02:07:12;;;;;;;14.00;12.60;;;;;;;12.67;76.03;100431.63;4965041;28;20514;-76
2021/09/29 02:09:39;;;;;;;12.70;10.70;;;;;;;12.77;75.72;100429.72;4965579;29;20934;-76
2021/09/29 02:12:06;;;;;;;13.00;11.20;;;;;;;12.75;75.70;100429.03;4963887;28;20893;-76
2021/09/29 02:14:33;;;;;;;14.93;12.20;;;;;;;12.68;76.08;100425.28;4965253;29;20434;-76
2021/09/29 02:17:00;;;;;;;16.83;12.30;;;;;;;12.61;76.26;100425.03;4961008;28;20572;-76
2021/09/29 02:19:28;;;;;;;18.23;11.63;;;;;;;12.64;76.32;100423.88;4968055;29;20496;-76
2021/09/29 02:21:56;;;;;;;20.30;11.10;;;;;;;12.57;76.60;100429.00;4968525;28;20504;-76
2021/09/29 02:24:23;;;;;;;11.43;10.30;;;;;;;12.78;76.08;100428.75;4966377;29;20509;-76
2021/09/29 02:26:50;;;;;;;14.40;11.90;;;;;;;12.77;75.92;100429.72;4966307;28;20562;-76
2021/09/29 02:29:17;;;;;;;17.67;11.70;;;;;;;12.53;76.75;100424.91;4967043;29;20539;-76
2021/09/29 02:31:44;;;;;;;12.83;11.53;;;;;;;12.58;76.97;100424.47;4965953;28;20560;-76
2021/09/29 02:34:11;;;;;;;12.33;11.03;;;;;;;12.67;76.71;100420.06;4964693;29;20609;-76
2021/09/29 02:36:39;;;;;;;17.53;11.87;;;;;;;12.58;76.93;100422.63;4966243;28;20488;-76
2021/09/29 02:39:07;;;;;;;13.40;12.00;;;;;;;12.73;76.17;100417.63;4966680;29;20500;-76
2021/09/29 02:41:33;;;;;;;14.97;11.97;;;;;;;12.77;75.96;100408.25;4966484;28;20477;-76
2021/09/29 02:44:01;;;;;;;15.10;11.70;;;;;;;12.79;75.90;100411.66;4966907;29;20457;-76
2021/09/29 02:46:27;;;;;;;13.03;11.70;;;;;;;12.73;76.31;100411.41;4965419;29;20492;-76
2021/09/29 02:48:54;;;;;;;14.10;11.97;;;;;;;12.80;75.98;100407.97;4966297;29;20493;-76
2021/09/29 02:51:21;;;;;;;14.83;11.40;;;;;;;12.80;75.90;100407.13;4965795;28;20511;-76
2021/09/29 02:53:49;;;;;;;15.07;11.60;;;;;;;12.81;75.77;100400.75;4966746;29;20888;-77
2021/09/29 02:56:15;;;;;;;13.00;11.60;;;;;;;12.86;75.75;100398.47;4965409;28;20521;-76
2021/09/29 02:58:42;;;;;;;16.60;11.70;;;;;;;12.71;76.16;100408.88;4966904;29;20520;-76
2021/09/29 03:01:09;;;;;;;15.80;12.00;;;;;;;12.47;76.95;100398.72;4964800;28;20520;-77
2021/09/29 03:03:37;;;;;;;14.37;12.03;;;;;;;12.40;77.14;100392.25;4966281;29;20441;-76
2021/09/29 03:06:04;;;;;;;25.73;11.87;;;;;;;12.41;77.38;100400.16;4965489;28;20485;-76
2021/09/29 03:08:30;;;;;;;14.83;12.07;;;;;;;12.50;76.84;100400.22;4966709;29;20473;-76
2021/09/29 03:10:58;;;;;;;14.43;11.93;;;;;;;12.50;76.88;100400.22;4964769;28;20497;-76
2021/09/29 03:13:25;;;;;;;16.83;12.17;;;;;;;12.56;76.83;100392.44;4966659;29;20457;-76
2021/09/29 03:15:52;;;;;;;16.80;12.30;;;;;;;12.67;76.46;100398.59;4965225;28;20485;-76
2021/09/29 03:18:19;;;;;;;14.53;12.07;;;;;;;12.69;76.37;100393.91;4965427;29;20517;-76
2021/09/29 03:20:47;;;;;;;14.57;11.53;;;;;;;12.58;76.45;100392.28;4965050;28;20458;-76
2021/09/29 03:23:14;;;;;;;13.47;11.00;;;;;;;12.62;76.50;100391.03;4966378;29;20890;-76
2021/09/29 03:25:40;;;;;;;14.47;11.30;;;;;;;12.57;76.60;100386.09;4964512;28;20465;-76
2021/09/29 03:28:08;;;;;;;13.70;11.70;;;;;;;12.58;76.61;100387.75;4965803;29;20950;-76
2021/09/29 03:30:35;;;;;;;14.37;11.90;;;;;;;12.61;76.32;100387.47;4964251;28;21027;-76
2021/09/29 03:33:06;;;;;;;14.20;11.37;;;;;;;12.54;76.32;100388.22;4966213;29;20453;-76
2021/09/29 03:35:33;;;;;;;14.10;11.47;;;;;;;12.47;76.57;100389.81;4964808;28;20497;-76
2021/09/29 03:37:59;;;;;;;19.00;12.57;;;;;;;12.39;76.95;100380.69;4965789;29;20457;-76
2021/09/29 03:40:26;;;;;;;19.40;12.07;;;;;;;12.40;76.93;100381.53;4965197;28;20473;-76
2021/09/29 03:42:53;;;;;;;13.73;10.40;;;;;;;12.38;77.06;100383.53;4965674;29;20481;-76
2021/09/29 03:45:21;;;;;;;14.20;10.90;;;;;;;12.40;77.11;100370.81;4964932;28;21612;-76
2021/09/29 03:47:48;;;;;;;17.17;11.43;;;;;;;12.42;77.32;100369.66;4965551;28;20489;-76
2021/09/29 03:50:14;;;;;;;13.63;11.30;;;;;;;12.43;76.66;100370.53;4963921;28;20932;-76
2021/09/29 03:52:41;;;;;;;15.60;10.77;;;;;;;12.58;76.87;100368.16;4966003;29;20473;-76
2021/09/29 03:55:09;;;;;;;13.07;10.93;;;;;;;12.68;76.41;100362.75;4964631;29;20441;-76
2021/09/29 03:57:37;;;;;;;11.90;10.27;;;;;;;12.62;76.27;100356.97;4965057;29;20974;-76
2021/09/29 04:00:06;;;;;;;13.53;11.20;;;;;;;12.62;76.29;100369.56;4963961;29;20484;-77
2021/09/29 04:02:34;;;;;;;11.00;9.90;;;;;;;12.66;76.34;100365.56;4965529;29;20465;-77
2021/09/29 04:05:00;;;;;;;12.40;10.80;;;;;;;12.63;76.36;100366.69;4952042;29;20454;-76
2021/09/29 04:07:27;;;;;;;14.67;11.20;;;;;;;12.49;76.56;100352.97;4946086;29;20513;-76
2021/09/29 04:09:53;;;;;;;15.27;10.77;;;;;;;12.23;77.41;100351.00;4945822;29;20506;-76
2021/09/29 04:12:21;;;;;;;11.30;9.63;;;;;;;12.31;77.20;100351.09;4944258;29;20513;-77
2021/09/29 04:14:48;;;;;;;13.80;10.60;;;;;;;12.38;76.79;100354.88;4946014;29;20457;-76
2021/09/29 04:17:15;;;;;;;15.20;11.70;;;;;;;12.42;76.90;100350.88;4944818;29;20492;-76
2021/09/29 04:19:43;;;;;;;16.57;11.07;;;;;;;12.44;76.76;100354.25;4944368;29;20486;-76
2021/09/29 04:22:11;;;;;;;13.03;11.63;;;;;;;12.47;76.57;100352.28;4943958;29;20478;-77
2021/09/29 04:24:37;;;;;;;13.37;12.07;;;;;;;12.41;76.76;100351.91;4945450;29;20471;-77
2021/09/29 04:27:05;;;;;;;13.50;11.53;;;;;;;12.36;76.97;100351.50;4944839;29;20525;-76
2021/09/29 04:29:31;;;;;;;14.20;11.63;;;;;;;12.39;76.82;100350.34;4938789;29;20506;-75
2021/09/29 04:31:58;;;;;;;15.03;11.33;;;;;;;12.29;77.00;100337.00;4930350;29;20526;-76
2021/09/29 04:34:25;;;;;;;15.00;12.33;;;;;;;12.13;77.40;100339.47;4943762;29;20884;-77
2021/09/29 04:36:53;;;;;;;14.23;11.53;;;;;;;12.26;77.26;100350.72;4944089;29;20517;-77
2021/09/29 04:39:20;;;;;;;16.40;10.50;;;;;;;12.09;77.91;100340.78;4944438;29;20505;-77
2021/09/29 04:41:46;;;;;;;12.70;11.40;;;;;;;12.10;77.56;100348.66;4943425;29;20519;-77
2021/09/29 04:44:13;;;;;;;14.63;11.50;;;;;;;12.21;77.51;100339.59;4945264;29;20706;-77
2021/09/29 04:46:40;;;;;;;14.43;11.30;;;;;;;12.05;77.93;100338.38;4944358;28;20484;-77
2021/09/29 04:49:06;;;;;;;15.83;11.70;;;;;;;12.08;77.98;100342.59;4942382;29;20478;-76
2021/09/29 04:51:33;;;;;;;17.07;12.13;;;;;;;11.96;78.39;100333.94;4944776;29;20481;-76
2021/09/29 04:54:02;;;;;;;16.97;12.17;;;;;;;11.95;78.66;100340.25;4944603;29;20812;-77
2021/09/29 04:56:28;;;;;;;17.13;11.40;;;;;;;11.98;78.39;100333.78;4944658;29;20474;-78
2021/09/29 04:58:55;;;;;;;14.80;11.80;;;;;;;12.08;78.27;100328.34;4944216;29;20849;-77
2021/09/29 05:01:23;;;;;;;18.00;12.90;;;;;;;11.83;78.83;100331.53;4945357;29;20525;-78
2021/09/29 05:03:49;;;;;;;15.80;12.53;;;;;;;11.96;78.43;100328.56;4945130;29;20463;-77
2021/09/29 05:06:16;;;;;;;15.07;11.60;;;;;;;11.98;78.56;100329.25;4944258;29;20874;-76
2021/09/29 05:08:44;;;;;;;16.23;12.77;;;;;;;11.93;78.78;100328.03;4945327;29;20454;-78
2021/09/29 05:11:21;;;;;;;16.07;11.50;;;;;;;11.78;79.28;100320.41;4943557;28;20510;-77
2021/09/29 05:13:48;;;;;;;22.23;12.20;;;;;;;11.82;79.02;100321.81;4945308;29;20923;-76
2021/09/29 05:16:15;;;;;;;14.20;12.10;;;;;;;11.83;78.78;100325.34;4942545;29;20485;-77
2021/09/29 05:18:42;;;;;;;14.90;13.37;;;;;;;11.71;79.55;100316.63;4941942;29;20525;-77
2021/09/29 05:21:09;;;;;;;13.93;12.03;;;;;;;11.64;79.54;100326.25;4948275;29;20983;-78
2021/09/29 05:23:35;;;;;;;15.63;12.30;;;;;;;11.79;79.38;100314.06;4947754;29;20468;-78
2021/09/29 05:26:02;;;;;;;13.10;11.70;;;;;;;11.75;79.35;100314.50;4950598;29;20553;-78
2021/09/29 05:28:32;;;;;;;15.13;12.17;;;;;;;11.75;79.20;100314.50;4947592;29;20490;-78
2021/09/29 05:30:59;;;;;;;16.30;12.37;;;;;;;11.84;78.99;100319.00;4946312;28;20860;-78
2021/09/29 05:33:26;;;;;;;15.47;13.00;;;;;;;11.86;78.95;100317.84;4942892;29;20493;-77
2021/09/29 05:35:53;;;;;;;16.37;14.07;;;;;;;11.93;78.74;100311.94;4941610;29;20545;-77
2021/09/29 05:38:19;;;;;;;18.70;13.97;;;;;;;12.04;78.24;100309.06;4959361;29;20473;-75
2021/09/29 05:40:46;;;;;;;20.83;13.77;;;;;;;11.97;78.59;100303.44;4955259;29;20485;-76
2021/09/29 05:43:13;;;;;;;16.37;13.30;;;;;;;11.87;78.95;100303.47;4943576;29;20427;-76
2021/09/29 05:45:41;;;;;;;20.37;14.20;;;;;;;11.80;79.14;100296.16;4941798;29;20569;-75
2021/09/29 05:48:08;;;;;;;16.17;14.37;;;;;;;11.80;79.42;100296.16;4943312;29;20455;-75
2021/09/29 05:50:35;;;;;;;16.60;12.33;;;;;;;11.96;78.97;100306.25;4942181;29;20485;-76
2021/09/29 05:53:02;;;;;;;22.63;14.20;;;;;;;12.00;78.33;100300.47;4944981;29;20434;-76
2021/09/29 05:55:29;;;;;;;16.43;14.00;;;;;;;12.02;78.34;100293.13;4945944;29;20525;-75
2021/09/29 05:57:55;;;;;;;16.33;13.20;;;;;;;12.05;78.21;100292.00;4947135;29;20537;-76
2021/09/29 06:00:22;;;;;;;19.40;13.17;;;;;;;12.09;78.05;100292.53;4946396;29;20489;-76
2021/09/29 06:02:50;;;;;;;16.57;13.47;;;;;;;12.11;78.01;100279.81;4947411;29;20481;-76
2021/09/29 06:05:18;;;;;;;17.83;13.63;;;;;;;12.33;77.36;100270.53;4946468;29;20485;-76
2021/09/29 06:07:45;;;;;;;14.70;13.20;;;;;;;12.19;77.76;100255.81;4946076;29;20521;-76
2021/09/29 06:10:11;;;;;;;18.70;14.40;;;;;;;12.31;77.69;100237.66;4945153;28;20518;-76
2021/09/29 06:12:38;;;;;;;21.73;13.30;;;;;;;12.55;76.97;100250.44;4945104;29;20521;-76
2021/09/29 06:15:06;;;;;;;19.10;14.03;;;;;;;12.46;76.93;100260.25;4951386;29;20458;-75
2021/09/29 06:17:39;;;;;;;19.10;13.47;;;;;;;12.56;76.90;100270.91;4946007;29;20438;-75
2021/09/29 06:20:09;;;;;;;20.50;14.40;;;;;;;12.68;76.10;100264.31;4944001;29;20482;-75
2021/09/29 06:22:38;;;;;;;14.43;12.27;;;;;;;12.46;76.41;100252.22;4945861;29;20469;-75
2021/09/29 06:25:06;;;;;;;16.23;11.70;;;;;;;12.52;76.12;100259.66;4946014;29;20474;-75
2021/09/29 06:27:33;;;;;;;15.90;12.33;;;;;;;12.61;76.14;100256.03;4944920;29;20478;-75
2021/09/29 06:29:59;;;;;;;13.33;11.53;;;;;;;12.81;75.09;100255.88;4945576;29;21071;-75
2021/09/29 06:32:26;;;;;;;17.00;11.90;;;;;;;13.19;73.95;100257.38;4944725;28;20561;-75
2021/09/29 06:34:53;;;;;;;13.00;11.33;;;;;;;12.99;74.33;100258.56;4945249;29;20478;-76
2021/09/29 06:37:21;;;;;;;12.70;10.30;;;;;;;13.02;74.12;100244.81;4944278;29;20541;-75
2021/09/29 06:39:47;;;;;;;15.13;10.53;;;;;;;13.24;73.88;100259.56;4945613;29;20912;-75
2021/09/29 06:42:14;;;;;;;12.37;10.30;;;;;;;14.13;71.31;100268.25;4943907;28;20478;-75
2021/09/29 06:44:41;;;;;;;11.67;9.20;;;;;;;15.68;67.20;100260.38;4945501;29;20435;-75
2021/09/29 06:47:08;;;;;;;8.93;7.53;;;;;;;18.55;57.70;100267.78;4944534;28;21086;-76
2021/09/29 06:49:35;;;;;;;7.60;6.97;;;;;;;18.43;56.05;100267.44;4944463;29;20462;-76
2021/09/29 06:52:01;;;;;;;6.50;5.60;;;;;;;17.88;57.12;100262.44;4945067;29;20489;-76
2021/09/29 06:54:29;;;;;;;8.17;5.20;;;;;;;17.86;56.66;100261.78;4945187;29;20454;-76
2021/09/29 06:56:56;;;;;;;8.60;5.00;;;;;;;17.36;57.30;100257.94;4944284;28;21011;-76
2021/09/29 06:59:23;;;;;;;12.43;5.20;;;;;;;16.26;59.41;100248.31;4945377;29;20883;-76
2021/09/29 07:01:49;;;;;;;10.00;4.57;;;;;;;16.07;62.22;100255.00;4944245;28;20509;-76
2021/09/29 07:04:16;;;;;;;5.13;4.63;;;;;;;15.68;62.06;100247.72;4943973;29;20493;-75
2021/09/29 07:06:43;;;;;;;4.50;4.10;;;;;;;15.77;59.96;100241.31;4944287;29;20911;-76
2021/09/29 07:09:10;;;;;;;7.03;5.10;;;;;;;15.40;62.00;100245.44;4945085;29;20493;-76
2021/09/29 07:11:38;;;;;;;6.17;4.30;;;;;;;15.17;62.30;100250.72;4944062;28;20522;-75
2021/09/29 07:14:04;;;;;;;5.93;4.77;;;;;;;15.32;62.99;100258.09;4954006;29;20489;-76
2021/09/29 07:16:31;;;;;;;6.43;3.97;;;;;;;15.49;62.14;100253.53;4953822;29;20547;-75
2021/09/29 07:19:02;;;;;;;6.63;3.60;;;;;;;15.32;62.64;100252.72;4944558;29;20454;-75
2021/09/29 07:21:29;;;;;;;5.97;3.67;;;;;;;15.12;62.70;100249.53;4944530;28;20478;-76
2021/09/29 07:23:55;;;;;;;5.10;3.90;;;;;;;14.67;64.71;100243.69;4944195;29;20514;-75
2021/09/29 07:26:22;;;;;;;4.40;3.97;;;;;;;14.77;64.14;100247.06;4944596;28;20502;-75
2021/09/29 07:28:50;;;;;;;6.87;4.40;;;;;;;15.74;61.40;100244.31;4955111;29;20492;-75
2021/09/29 07:31:17;;;;;;;5.40;3.93;;;;;;;16.64;57.19;100250.28;4949081;29;20542;-75
2021/09/29 07:33:44;;;;;;;5.73;3.87;;;;;;;16.83;57.16;100252.47;4946717;29;20522;-77
2021/09/29 07:36:11;;;;;;;8.33;4.17;;;;;;;16.49;58.37;100261.84;4945426;28;21048;-75
2021/09/29 07:38:39;;;;;;;5.87;4.03;;;;;;;16.70;57.72;100252.22;4946478;29;20458;-76
2021/09/29 07:41:06;;;;;;;6.67;4.00;;;;;;;16.51;58.14;100254.41;4945478;28;20502;-76
2021/09/29 07:43:33;;;;;;;10.57;4.17;;;;;;;17.41;55.31;100249.25;4946751;29;20467;-75
2021/09/29 07:46:01;;;;;;;9.37;4.33;;;;;;;16.92;56.13;100248.69;4945453;28;20848;-76
2021/09/29 07:48:27;;;;;;;6.07;3.33;;;;;;;17.93;53.62;100251.03;4947056;29;20572;-76
2021/09/29 07:50:55;;;;;;;6.23;3.70;;;;;;;17.27;53.88;100238.28;4959973;28;20618;-75
2021/09/29 07:53:24;;;;;;;11.00;3.70;;;;;;;17.41;54.83;100239.31;4964225;28;20532;-76
2021/09/29 07:55:51;;;;;;;5.83;3.53;;;;;;;17.69;54.68;100242.19;4947602;29;20478;-75
2021/09/29 07:58:18;;;;;;;5.57;3.10;;;;;;;18.86;51.51;100236.88;4945779;29;20465;-76
2021/09/29 08:00:44;;;;;;;9.53;4.17;;;;;;;18.60;50.69;100235.56;4943447;29;20521;-77
2021/09/29 08:03:12;;;;;;;5.43;3.13;;;;;;;17.81;53.52;100231.75;4945556;29;20707;-75
2021/09/29 08:05:40;;;;;;;5.03;3.07;;;;;;;16.68;56.05;100228.13;4944006;29;20498;-76
2021/09/29 08:08:07;;;;;;;6.40;3.20;;;;;;;17.79;54.01;100232.94;4944232;29;20474;-77
2021/09/29 08:10:34;;;;;;;3.80;2.73;;;;;;;18.31;51.97;100231.09;4944926;28;20488;-77
2021/09/29 08:13:01;;;;;;;4.30;2.60;;;;;;;18.36;52.35;100229.47;4945194;29;20450;-76
2021/09/29 08:15:28;;;;;;;6.13;2.80;;;;;;;19.47;48.68;100218.13;4944321;28;20897;-76
2021/09/29 08:17:55;;;;;;;4.40;2.10;;;;;;;20.20;45.51;100219.50;4945688;29;20550;-76
2021/09/29 08:20:26;;;;;;;6.17;2.23;;;;;;;20.65;45.28;100211.69;4944474;28;20458;-77
2021/09/29 08:22:56;;;;;;;3.43;2.30;;;;;;;20.68;45.56;100214.00;4945099;29;20470;-77
2021/09/29 08:25:36;;;;;;;7.43;2.87;;;;;;;21.27;43.83;100206.84;4944913;29;20449;-76
2021/09/29 08:28:20;;;;;;;4.30;1.97;;;;;;;21.81;42.95;100210.28;4945140;29;20466;-76
2021/09/29 08:30:59;;;;;;;3.20;1.90;;;;;;;22.57;40.51;100211.38;4943628;28;20580;-76
2021/09/29 08:33:45;;;;;;;5.40;2.50;;;;;;;22.18;42.05;100202.34;4945575;29;20510;-76
2021/09/29 08:36:21;;;;;;;6.37;1.90;;;;;;;21.92;41.53;100195.16;4943588;28;20876;-75
2021/09/29 08:38:52;;;;;;;4.90;2.33;;;;;;;22.36;41.33;100197.03;4944499;29;20473;-76
2021/09/29 08:41:26;;;;;;;3.93;2.23;;;;;;;21.73;42.42;100199.63;4943401;29;20509;-75
2021/09/29 08:43:57;;;;;;;3.57;1.97;;;;;;;20.18;46.37;100197.16;4943358;29;20441;-76
2021/09/29 08:46:27;;;;;;;11.37;2.50;;;;;;;20.74;45.98;100190.56;4943370;29;20477;-76
2021/09/29 08:49:01;;;;;;;7.80;2.20;;;;;;;19.88;47.94;100189.34;4942913;29;21015;-75
2021/09/29 08:52:02;;;;;;;4.23;2.33;;;;;;;20.05;46.78;100187.09;4943557;29;20509;-76
2021/09/29 08:57:54;;;;;;;5.73;2.50;;;;;;;22.03;43.02;100186.31;4903782;29;20452;-74
2021/09/29 09:17:29;;;;;;;6.73;2.57;;;;;;;19.04;51.88;100183.00;4763360;30;20454;-76
2021/09/29 09:19:59;;;;;;;3.40;2.00;;;;;;;18.55;51.03;100190.09;4774777;30;20501;-72
2021/09/29 09:22:32;;;;;;;9.00;2.47;;;;;;;18.20;52.88;100186.44;4772642;30;20603;-75
2021/09/29 09:25:01;;;;;;;3.37;1.77;;;;;;;17.91;53.10;100180.06;4774886;30;20494;-74
2021/09/29 09:27:40;;;;;;;6.60;2.37;;;;;;;18.32;52.49;100178.66;4773823;30;20942;-75
2021/09/29 09:30:08;;;;;;;6.90;2.47;;;;;;;17.88;54.27;100188.59;4773786;29;20505;-75
2021/09/29 09:32:43;;;;;;;3.03;2.43;;;;;;;17.37;55.41;100181.22;4806504;29;20570;-75
2021/09/29 09:35:13;;;;;;;7.10;2.17;;;;;;;17.37;55.36;100186.63;4808129;29;20507;-75
2021/09/29 09:37:41;;;;;;;4.00;1.93;;;;;;;17.16;56.29;100189.25;4820374;29;20467;-74
2021/09/29 09:40:11;;;;;;;3.17;2.00;;;;;;;16.89;58.44;100172.63;4828362;29;20527;-74
2021/09/29 09:42:40;;;;;;;3.90;2.30;;;;;;;16.75;60.38;100169.69;4828627;29;20450;-76
2021/09/29 09:45:08;;;;;;;3.47;2.03;;;;;;;16.23;60.53;100164.22;4829248;29;20487;-74
2021/09/29 09:47:39;;;;;;;4.63;1.80;;;;;;;16.47;60.67;100168.59;4847091;29;20545;-76
2021/09/29 09:50:06;;;;;;;3.83;2.20;;;;;;;16.56;60.73;100168.34;4848644;29;20504;-76
2021/09/29 09:52:38;;;;;;;4.87;2.10;;;;;;;16.20;62.00;100165.41;4884577;29;20627;-75
2021/09/29 09:55:07;;;;;;;4.33;1.80;;;;;;;16.40;62.66;100157.66;4921620;29;20497;-77
2021/09/29 09:57:36;;;;;;;3.47;2.10;;;;;;;16.44;61.91;100152.75;4924023;29;20545;-76
2021/09/29 10:00:06;;;;;;;4.27;1.80;;;;;;;16.53;61.63;100163.31;4925286;29;20542;-75
2021/09/29 10:02:39;;;;;;;3.30;1.87;;;;;;;16.36;61.23;100156.38;4943697;29;20454;-75
2021/09/29 10:05:06;;;;;;;4.53;1.60;;;;;;;16.60;60.64;100146.41;4942786;28;20465;-75
2021/09/29 10:07:33;;;;;;;2.13;1.70;;;;;;;16.47;61.07;100152.38;4943863;29;20491;-73
2021/09/29 10:10:03;;;;;;;4.47;1.60;;;;;;;16.75;60.36;100144.53;4943955;29;20462;-75
2021/09/29 10:12:35;;;;;;;2.17;1.40;;;;;;;16.68;60.22;100146.28;4925448;29;20519;-76
2021/09/29 10:23:28;;;;;;;5.30;2.80;;;;;;;18.06;57.56;100143.00;4902107;29;20428;-76
2021/09/29 10:26:11;;;;;;;6.53;1.47;;;;;;;18.23;55.47;100138.19;4901533;29;20464;-75
2021/09/29 10:28:40;;;;;;;4.90;1.53;;;;;;;17.56;57.95;100143.84;4901299;29;20467;-76
2021/09/29 10:31:17;;;;;;;4.23;1.87;;;;;;;17.91;56.78;100130.56;4901396;29;20549;-77
2021/09/29 10:33:54;;;;;;;5.40;2.60;;;;;;;17.38;56.64;100115.34;4902035;29;20816;-76
2021/09/29 10:36:39;;;;;;;13.67;2.40;;;;;;;17.79;56.74;100116.66;4904565;29;20582;-75
2021/09/29 10:42:00;;;;;;;3.67;1.60;;;;;;;17.78;56.71;100109.59;4922628;29;20489;-75
2021/09/29 10:44:52;;;;;;;5.13;2.00;;;;;;;17.62;58.12;100102.53;4924290;29;20442;-76
2021/09/29 10:47:30;;;;;;;4.30;1.90;;;;;;;17.02;60.14;100101.78;4922651;29;20482;-75
2021/09/29 10:50:14;;;;;;;4.33;1.67;;;;;;;16.90;60.52;100107.63;4922585;29;20471;-75
2021/09/29 10:53:05;;;;;;;6.07;1.80;;;;;;;17.13;61.30;100112.97;4904926;29;20479;-76
2021/09/29 11:09:49;;;;;;;3.00;1.50;;;;;;;15.67;66.91;100132.00;4885826;29;20457;-74
2021/09/29 11:29:18;;;;;;;3.50;1.60;;;;;;;16.61;63.13;100124.59;4886902;29;20439;-77
2021/09/29 11:31:47;;;;;;;4.03;1.57;;;;;;;17.15;62.12;100130.81;4885850;29;20693;-76
2021/09/29 11:34:19;;;;;;;10.27;1.80;;;;;;;16.84;62.68;100121.88;4885754;29;20488;-76
2021/09/29 11:37:10;;;;;;;3.70;1.70;;;;;;;16.73;62.78;100122.28;4885955;29;20517;-77
2021/09/29 12:10:09;;;;;;;5.23;2.67;;;;;;;15.28;71.96;100108.63;4902791;29;20500;-74
2021/09/29 12:12:37;;;;;;;2.60;1.70;;;;;;;14.65;73.45;100114.69;4902230;29;20492;-75
2021/09/29 12:15:06;;;;;;;4.37;2.50;;;;;;;14.72;73.78;100117.53;4902699;29;20556;-75
2021/09/29 12:17:36;;;;;;;3.10;2.00;;;;;;;14.41;75.83;100117.34;4900255;29;21021;-75
2021/09/29 12:20:11;;;;;;;4.33;2.40;;;;;;;14.15;77.04;100145.25;4901348;29;20472;-77
2021/09/29 12:22:40;;;;;;;2.50;1.53;;;;;;;13.62;78.65;100150.00;4920358;29;20462;-75
2021/09/29 12:25:13;;;;;;;1.57;1.23;;;;;;;13.60;77.41;100154.69;4942421;29;20482;-77
2021/09/29 12:27:41;;;;;;;1.83;1.23;;;;;;;13.56;77.21;100147.97;4941044;29;20462;-76
2021/09/29 12:30:17;;;;;;;2.70;1.73;;;;;;;13.64;77.11;100161.41;4932975;29;20491;-77
2021/09/29 12:32:59;;;;;;;2.10;1.43;;;;;;;13.41;77.83;100163.84;4941937;29;21021;-76
2021/09/29 12:35:37;;;;;;;2.40;1.60;;;;;;;13.27;77.37;100165.28;4937835;29;20521;-75
2021/09/29 12:38:04;;;;;;;2.13;1.50;;;;;;;13.45;76.85;100159.84;4941074;29;20487;-77
2021/09/29 12:40:34;;;;;;;3.33;1.90;;;;;;;13.63;76.60;100169.66;4939268;28;20462;-75
2021/09/29 12:43:03;;;;;;;2.93;2.40;;;;;;;13.87;76.21;100158.13;4943210;29;20443;-76
2021/09/29 12:45:33;;;;;;;2.57;2.20;;;;;;;13.74;75.91;100164.81;4937204;28;20979;-75
2021/09/29 12:48:00;;;;;;;3.00;2.70;;;;;;;13.91;75.48;100172.94;4946804;29;20462;-77
2021/09/29 12:50:36;;;;;;;3.10;2.80;;;;;;;14.43;75.25;100164.59;4962372;28;20493;-76
2021/09/29 12:53:14;;;;;;;4.20;3.90;;;;;;;14.26;75.19;100160.22;4952966;29;20497;-76
2021/09/29 12:55:45;;;;;;;4.37;4.00;;;;;;;14.58;74.75;100153.16;4944059;28;20529;-78
2021/09/29 12:58:12;;;;;;;4.67;4.27;;;;;;;14.53;74.36;100161.75;4945028;29;20470;-75